Meath Park, Canada
Current Conditions -  °F | °C
As of 2:00 AM on Saturday 25 Oct 2014 (Local Time) from CYPA Reporting Station
Few Clouds Few Clouds  
Wind Chill: 30°   Ceiling: Unl
Heat Index: 37°   Visibility: 15mi
Dew Point: 27°   Wind: 10mph
Humidity: 65%   Direction: 260°W
Pressure: 29.91"   Gusts: NA
Location:  53.45°N, 105.37°W
Report Text: CYPA 250800Z 26009KT 15SM FEW065 03/M03 A2991 RMK SC2 SLP146
Loading
Personal Weather Stations






























Interactive Weather Map
Tropical Storm Tracking
New forecast layout! Learn more

10-Day Weather Forecast

Advertisements
Track Severe Weather on mobile